Time;durP1;ratioP1;P1;durP2;ratioP2;P2;SDS_P1;SDS_P2;PMS_P1;PMS_P2;Temp;Humidity;BMP_temperature;BMP_pressure;BME280_temperature;BME280_humidity;BME280_pressure;Samples;Min_cycle;Max_cycle;Signal;HPM_P1;HPM_P2
2023/10/29 00:01:16;;;;;;;;;;;;;;;11.40;100.00;99133.94;5006093;28;20133;-73
2023/10/29 00:03:42;;;;;;;;;;;;;;;11.49;100.00;99141.03;5007860;28;20174;-72
2023/10/29 00:06:08;;;;;;;;;;;;;;;11.58;100.00;99149.91;5004667;28;19925;-75
2023/10/29 00:08:33;;;;;;;;;;;;;;;11.63;100.00;99150.25;4992915;28;20295;-73
2023/10/29 00:10:59;;;;;;;;;;;;;;;11.74;100.00;99153.63;5009797;28;20032;-77
2023/10/29 00:13:25;;;;;;;;;;;;;;;11.73;100.00;99133.13;4989784;28;19921;-72
2023/10/29 00:15:50;;;;;;;;;;;;;;;11.70;100.00;99131.59;5002523;28;19929;-74
2023/10/29 00:18:16;;;;;;;;;;;;;;;11.74;100.00;99121.38;5004156;28;20334;-74
2023/10/29 00:20:41;;;;;;;;;;;;;;;11.78;100.00;99146.91;5012999;28;19925;-74
2023/10/29 00:23:07;;;;;;;;;;;;;;;11.96;100.00;99136.81;5014010;28;19921;-73
2023/10/29 00:25:32;;;;;;;;;;;;;;;12.01;100.00;99106.72;5014708;28;19952;-72
2023/10/29 00:27:57;;;;;;;;;;;;;;;11.89;100.00;99111.59;5016493;28;19999;-73
2023/10/29 00:30:22;;;;;;;;;;;;;;;11.89;100.00;99127.72;5014782;28;19923;-74
2023/10/29 00:32:48;;;;;;;;;;;;;;;11.91;100.00;99122.19;5032507;28;20503;-76
2023/10/29 00:35:13;;;;;;;;;;;;;;;11.95;100.00;99110.06;5013283;28;20380;-73
2023/10/29 00:37:38;;;;;;;;;;;;;;;11.88;100.00;99085.72;5014750;28;20346;-75
2023/10/29 00:40:04;;;;;;;;;;;;;;;11.93;100.00;99066.38;5016488;28;20414;-74
2023/10/29 00:42:29;;;;;;;;;;;;;;;11.91;100.00;99071.94;5011814;28;20427;-74
2023/10/29 00:44:54;;;;;;;;;;;;;;;11.95;100.00;99070.59;5028247;28;19920;-75
2023/10/29 00:47:20;;;;;;;;;;;;;;;11.94;100.00;99070.72;4996680;28;20335;-75
2023/10/29 00:49:45;;;;;;;;;;;;;;;11.93;100.00;99069.06;4996741;28;20391;-74
2023/10/29 00:52:10;;;;;;;;;;;;;;;12.03;100.00;99087.75;5009737;28;20474;-74
2023/10/29 00:54:35;;;;;;;;;;;;;;;12.06;100.00;99090.06;5016638;28;19953;-73
2023/10/29 00:57:00;;;;;;;;;;;;;;;12.09;100.00;99069.06;5031583;28;20039;-74
2023/10/29 00:59:27;;;;;;;;;;;;;;;12.14;100.00;99047.88;5012883;28;19927;-72
2023/10/29 01:01:52;;;;;;;;;;;;;;;12.11;100.00;99069.72;5018332;28;19933;-73
2023/10/29 01:04:18;;;;;;;;;;;;;;;12.09;100.00;99065.53;5015232;28;19925;-72
2023/10/29 01:06:44;;;;;;;;;;;;;;;12.18;100.00;99074.44;5011826;28;20322;-77
2023/10/29 01:09:09;;;;;;;;;;;;;;;12.20;100.00;99064.31;5011839;28;19921;-75
2023/10/29 01:11:35;;;;;;;;;;;;;;;12.20;100.00;99045.47;5006087;28;20327;-71
2023/10/29 01:14:03;;;;;;;;;;;;;;;12.24;100.00;99012.69;5003066;28;19959;-70
2023/10/29 01:16:28;;;;;;;;;;;;;;;12.18;100.00;99024.13;5010893;28;20395;-72
2023/10/29 01:18:57;;;;;;;;;;;;;;;12.29;100.00;99044.44;5009873;28;19917;-79
2023/10/29 01:21:23;;;;;;;;;;;;;;;12.48;100.00;99031.56;5026381;28;19929;-72
2023/10/29 01:23:48;;;;;;;;;;;;;;;12.38;100.00;99043.41;5009734;28;19987;-76
2023/10/29 01:26:13;;;;;;;;;;;;;;;12.51;100.00;99023.13;5013269;28;20016;-75
2023/10/29 01:28:38;;;;;;;;;;;;;;;12.54;100.00;99025.47;5010952;28;19921;-72
2023/10/29 01:31:05;;;;;;;;;;;;;;;12.58;100.00;99011.47;5014042;28;19935;-73
2023/10/29 01:33:30;;;;;;;;;;;;;;;12.48;100.00;98992.03;4994368;28;19952;-73
2023/10/29 01:35:55;;;;;;;;;;;;;;;12.60;100.00;99014.00;5012240;28;20056;-72
2023/10/29 01:38:20;;;;;;;;;;;;;;;12.49;100.00;98996.41;4987911;28;19931;-73
2023/10/29 01:40:46;;;;;;;;;;;;;;;12.57;100.00;98990.13;5012264;28;20019;-73
2023/10/29 01:43:11;;;;;;;;;;;;;;;12.61;100.00;99004.91;4995784;28;20359;-73
2023/10/29 01:45:37;;;;;;;;;;;;;;;12.56;100.00;99001.91;5026157;28;19928;-73
2023/10/29 01:48:02;;;;;;;;;;;;;;;12.54;100.00;99010.16;5005222;28;20792;-73
2023/10/29 01:50:28;;;;;;;;;;;;;;;12.68;100.00;99005.03;4995746;28;19920;-71
2023/10/29 01:52:54;;;;;;;;;;;;;;;12.76;100.00;99004.97;5012876;28;19917;-73
2023/10/29 01:55:19;;;;;;;;;;;;;;;12.75;100.00;98973.69;5015244;28;19921;-73
2023/10/29 01:57:44;;;;;;;;;;;;;;;12.80;100.00;98974.00;5014711;28;20088;-71
2023/10/29 02:00:10;;;;;;;;;;;;;;;12.74;100.00;98970.13;5014128;28;19931;-73
2023/10/29 02:02:36;;;;;;;;;;;;;;;12.89;100.00;98977.44;5027698;28;19948;-75
2023/10/29 02:05:02;;;;;;;;;;;;;;;12.80;100.00;98979.38;5027842;28;19921;-72
2023/10/29 02:07:27;;;;;;;;;;;;;;;12.72;100.00;98964.09;5010787;28;20042;-73
2023/10/29 02:09:52;;;;;;;;;;;;;;;12.74;100.00;98970.13;5002595;28;20409;-71
2023/10/29 02:12:17;;;;;;;;;;;;;;;12.72;100.00;98971.34;5015072;28;20363;-74
2023/10/29 02:14:43;;;;;;;;;;;;;;;12.75;100.00;98969.13;5004711;28;19928;-72
2023/10/29 02:17:08;;;;;;;;;;;;;;;12.81;100.00;98970.28;5023505;28;19961;-70
2023/10/29 02:19:33;;;;;;;;;;;;;;;12.75;100.00;98976.38;4990532;28;20063;-72
2023/10/29 02:21:58;;;;;;;;;;;;;;;12.76;100.00;98986.13;4991222;28;19925;-73
2023/10/29 02:24:23;;;;;;;;;;;;;;;12.75;100.00;98984.47;5012746;28;19968;-76
2023/10/29 02:26:49;;;;;;;;;;;;;;;12.72;100.00;98974.88;4995189;28;20020;-72
2023/10/29 02:29:14;;;;;;;;;;;;;;;12.79;100.00;98971.47;4997822;28;19921;-71
2023/10/29 02:31:39;;;;;;;;;;;;;;;12.81;100.00;98977.50;5014374;28;19917;-71
2023/10/29 02:34:04;;;;;;;;;;;;;;;12.83;100.00;98964.69;5009986;28;19928;-74
2023/10/29 02:36:30;;;;;;;;;;;;;;;12.81;100.00;98964.91;5013257;28;20508;-72
2023/10/29 02:38:56;;;;;;;;;;;;;;;12.86;100.00;98977.81;5011452;28;19971;-72
2023/10/29 02:41:22;;;;;;;;;;;;;;;12.83;100.00;98976.31;5012998;28;19925;-72
2023/10/29 02:43:47;;;;;;;;;;;;;;;12.84;100.00;98986.09;5011716;28;19928;-72
2023/10/29 02:46:12;;;;;;;;;;;;;;;12.92;100.00;98978.94;5014009;28;20250;-71
2023/10/29 02:48:38;;;;;;;;;;;;;;;13.01;100.00;98957.13;5012968;28;19928;-71
2023/10/29 02:51:03;;;;;;;;;;;;;;;12.90;100.00;98976.44;5010924;28;19925;-72
2023/10/29 02:53:28;;;;;;;;;;;;;;;12.74;100.00;98970.13;5013133;28;20573;-70
2023/10/29 02:55:56;;;;;;;;;;;;;;;12.66;100.00;98958.59;5002209;28;19925;-72
2023/10/29 02:58:22;;;;;;;;;;;;;;;12.80;100.00;98967.75;5007403;28;20280;-72
2023/10/29 03:00:47;;;;;;;;;;;;;;;12.70;100.00;98957.22;5013631;28;19921;-72
2023/10/29 03:03:13;;;;;;;;;;;;;;;12.78;100.00;98975.16;5019375;28;20047;-69
2023/10/29 03:05:38;;;;;;;;;;;;;;;12.74;100.00;98970.13;5012499;28;20012;-71
2023/10/29 03:08:03;;;;;;;;;;;;;;;12.80;100.00;98965.91;5015880;28;19927;-72
2023/10/29 03:10:31;;;;;;;;;;;;;;;12.63;100.00;98924.81;5006998;28;19928;-72
2023/10/29 03:12:56;;;;;;;;;;;;;;;12.87;100.00;98982.19;5019344;28;19917;-70
2023/10/29 03:15:21;;;;;;;;;;;;;;;12.98;100.00;98954.81;5016903;28;19986;-70
2023/10/29 03:17:46;;;;;;;;;;;;;;;12.98;100.00;98968.28;5017420;28;20027;-69
2023/10/29 03:20:11;;;;;;;;;;;;;;;13.03;100.00;98952.41;5018040;28;19940;-71
2023/10/29 03:22:37;;;;;;;;;;;;;;;12.98;100.00;98964.75;5032192;28;19966;-73
2023/10/29 03:25:02;;;;;;;;;;;;;;;13.02;100.00;98963.38;5011635;28;20016;-77
2023/10/29 03:27:27;;;;;;;;;;;;;;;12.98;100.00;98952.09;5004120;28;19921;-71
2023/10/29 03:29:53;;;;;;;;;;;;;;;13.05;100.00;98961.16;4994907;28;21519;-76
2023/10/29 03:32:18;;;;;;;;;;;;;;;13.22;100.00;98963.72;4999349;28;19928;-70
2023/10/29 03:34:43;;;;;;;;;;;;;;;13.14;100.00;98959.22;5031714;28;20459;-72
2023/10/29 03:37:09;;;;;;;;;;;;;;;13.24;100.00;98990.47;5017103;28;19931;-71
2023/10/29 03:39:34;;;;;;;;;;;;;;;13.30;100.00;98987.03;5011223;28;20354;-73
2023/10/29 03:41:59;;;;;;;;;;;;;;;13.35;100.00;98969.28;5014935;28;20250;-72
2023/10/29 03:44:24;;;;;;;;;;;;;;;13.41;100.00;98975.00;5032409;28;20331;-72
2023/10/29 03:46:51;;;;;;;;;;;;;;;13.31;100.00;98959.06;5022323;28;20379;-73
2023/10/29 03:49:16;;;;;;;;;;;;;;;13.08;100.00;98945.63;5015682;28;19928;-72
2023/10/29 03:51:42;;;;;;;;;;;;;;;12.93;100.00;98964.44;5009559;28;20287;-72
2023/10/29 03:54:08;;;;;;;;;;;;;;;12.96;100.00;98975.72;5029211;28;20511;-72
2023/10/29 03:56:33;;;;;;;;;;;;;;;12.94;100.00;98960.75;5015321;28;19948;-71
2023/10/29 03:58:58;;;;;;;;;;;;;;;12.94;100.00;98963.44;5020781;28;19927;-71
2023/10/29 04:01:23;;;;;;;;;;;;;;;12.97;100.00;98963.94;5013942;28;19987;-72
2023/10/29 04:03:48;;;;;;;;;;;;;;;12.87;100.00;98961.47;5010179;28;19925;-71
2023/10/29 04:06:14;;;;;;;;;;;;;;;12.88;100.00;98954.22;5010378;28;20332;-73
2023/10/29 04:08:39;;;;;;;;;;;;;;;12.88;100.00;98968.53;5008586;28;19956;-72
2023/10/29 04:11:05;;;;;;;;;;;;;;;12.83;100.00;98965.56;5009914;28;20397;-71
2023/10/29 04:13:30;;;;;;;;;;;;;;;12.83;100.00;98970.94;5009233;28;19917;-71
2023/10/29 04:15:55;;;;;;;;;;;;;;;12.82;100.00;98981.88;5015936;28;19947;-72
2023/10/29 04:18:24;;;;;;;;;;;;;;;12.96;100.00;98967.63;5012871;28;19936;-72
2023/10/29 04:20:49;;;;;;;;;;;;;;;12.97;100.00;98955.00;5012605;28;20393;-73
2023/10/29 04:23:15;;;;;;;;;;;;;;;12.97;100.00;98957.69;5012311;28;19917;-73
2023/10/29 04:25:43;;;;;;;;;;;;;;;12.96;100.00;98970.34;5015237;28;19921;-71
2023/10/29 04:28:08;;;;;;;;;;;;;;;13.02;100.00;98974.97;5016747;28;20307;-73
2023/10/29 04:30:33;;;;;;;;;;;;;;;13.11;100.00;98977.59;5015866;28;19924;-72
2023/10/29 04:32:58;;;;;;;;;;;;;;;13.08;100.00;98983.34;5011410;28;20383;-72
2023/10/29 04:35:24;;;;;;;;;;;;;;;13.10;100.00;98986.72;5015986;28;20360;-73
2023/10/29 04:37:49;;;;;;;;;;;;;;;13.10;100.00;99003.72;4993797;28;20275;-71
2023/10/29 04:40:14;;;;;;;;;;;;;;;13.10;100.00;99003.72;5033512;23;20450;-71
2023/10/29 04:42:39;;;;;;;;;;;;;;;13.21;100.00;98980.91;5013492;28;20388;-69
2023/10/29 04:45:05;;;;;;;;;;;;;;;13.17;100.00;98985.78;5013694;28;20429;-74
2023/10/29 04:47:30;;;;;;;;;;;;;;;13.15;100.00;98992.41;5015738;28;19928;-71
2023/10/29 04:49:55;;;;;;;;;;;;;;;13.05;100.00;98979.19;5013408;28;19921;-71
2023/10/29 04:52:21;;;;;;;;;;;;;;;13.19;100.00;98989.16;5013646;28;20278;-73
2023/10/29 04:54:46;;;;;;;;;;;;;;;12.95;100.00;98992.91;5015827;28;19925;-74
2023/10/29 04:57:11;;;;;;;;;;;;;;;12.66;100.00;98990.91;5016691;28;20398;-71
2023/10/29 04:59:37;;;;;;;;;;;;;;;12.55;100.00;98976.00;5018135;28;19967;-72
2023/10/29 05:02:05;;;;;;;;;;;;;;;12.66;100.00;98990.91;5017653;28;20385;-75
2023/10/29 05:04:30;;;;;;;;;;;;;;;12.62;100.00;98982.34;5013983;28;19988;-72
2023/10/29 05:06:55;;;;;;;;;;;;;;;12.61;100.00;98972.59;5018959;28;20379;-72
2023/10/29 05:09:20;;;;;;;;;;;;;;;12.49;100.00;98937.19;5012090;28;19941;-74
2023/10/29 05:11:46;;;;;;;;;;;;;;;12.75;100.00;98993.34;5013128;28;19925;-72
2023/10/29 05:14:12;;;;;;;;;;;;;;;12.92;100.00;98982.47;5016077;28;19920;-73
2023/10/29 05:16:37;;;;;;;;;;;;;;;12.75;100.00;98987.97;5016766;28;19921;-70
2023/10/29 05:19:03;;;;;;;;;;;;;;;12.58;100.00;99003.38;5014455;28;19968;-74
2023/10/29 05:21:28;;;;;;;;;;;;;;;12.50;100.00;99002.59;5012600;28;20098;-73
2023/10/29 05:23:53;;;;;;;;;;;;;;;12.51;100.00;99006.97;5008300;28;20130;-71
2023/10/29 05:26:19;;;;;;;;;;;;;;;12.38;100.00;99012.94;5013617;28;19928;-70
2023/10/29 05:28:44;;;;;;;;;;;;;;;12.31;100.00;99072.00;5013474;28;19921;-71
2023/10/29 05:31:09;;;;;;;;;;;;;;;11.85;100.00;99032.28;5008484;28;19924;-72
2023/10/29 05:33:35;;;;;;;;;;;;;;;11.30;100.00;99031.19;5019094;28;19925;-71
2023/10/29 05:36:00;;;;;;;;;;;;;;;10.99;100.00;99047.97;5020250;28;19917;-73
2023/10/29 05:38:25;;;;;;;;;;;;;;;10.92;100.00;99040.56;5011927;28;19932;-73
2023/10/29 05:40:51;;;;;;;;;;;;;;;11.14;100.00;99035.53;5016709;28;19932;-73
2023/10/29 05:43:16;;;;;;;;;;;;;;;11.06;100.00;99047.13;5017109;28;19929;-73
2023/10/29 05:45:41;;;;;;;;;;;;;;;11.19;100.00;99046.63;5007175;28;19972;-73
2023/10/29 05:48:06;;;;;;;;;;;;;;;11.30;100.00;99063.44;5014021;28;20445;-75
2023/10/29 05:50:32;;;;;;;;;;;;;;;11.34;100.00;99056.72;5011591;28;20011;-72
2023/10/29 05:52:57;;;;;;;;;;;;;;;11.34;100.00;99087.09;5011998;28;20282;-73
2023/10/29 05:55:22;;;;;;;;;;;;;;;11.38;100.00;99077.72;5006787;28;20259;-72
2023/10/29 05:57:49;;;;;;;;;;;;;;;11.39;100.00;99082.06;5015604;28;20371;-74
2023/10/29 06:00:15;;;;;;;;;;;;;;;11.27;100.00;99058.41;5007137;28;19921;-72
2023/10/29 06:02:40;;;;;;;;;;;;;;;11.33;100.00;99065.78;5010506;28;20383;-73
2023/10/29 06:05:05;;;;;;;;;;;;;;;11.16;100.00;99083.75;5013817;28;19922;-72
2023/10/29 06:07:31;;;;;;;;;;;;;;;11.15;100.00;99090.13;5010585;28;19925;-72
2023/10/29 06:09:56;;;;;;;;;;;;;;;11.07;100.00;99080.22;5018141;28;19935;-73
2023/10/29 06:12:22;;;;;;;;;;;;;;;11.02;100.00;99087.91;5027295;28;19921;-74
2023/10/29 06:14:47;;;;;;;;;;;;;;;11.13;100.00;99105.56;5015548;28;19925;-76
2023/10/29 06:17:12;;;;;;;;;;;;;;;11.07;100.00;99110.59;5009365;28;19921;-71
2023/10/29 06:19:38;;;;;;;;;;;;;;;11.22;100.00;99100.03;5013531;28;19928;-72
2023/10/29 06:22:05;;;;;;;;;;;;;;;11.21;100.00;99102.91;5012670;28;19995;-73
2023/10/29 06:24:31;;;;;;;;;;;;;;;11.21;100.00;99102.91;5009228;28;19921;-71
2023/10/29 06:26:56;;;;;;;;;;;;;;;10.90;100.00;99090.09;5010970;28;20318;-71
2023/10/29 06:29:21;;;;;;;;;;;;;;;10.91;100.00;99110.56;5012290;28;20318;-72
2023/10/29 06:31:46;;;;;;;;;;;;;;;11.17;100.00;99139.97;5012717;28;19921;-72
2023/10/29 06:34:11;;;;;;;;;;;;;;;11.15;100.00;99141.16;5011595;28;19999;-72
2023/10/29 06:36:38;;;;;;;;;;;;;;;11.12;100.00;99138.78;5014199;28;19928;-72
2023/10/29 06:39:03;;;;;;;;;;;;;;;11.21;100.00;99151.25;5011549;28;19925;-71
2023/10/29 06:41:29;;;;;;;;;;;;;;;11.16;100.00;99138.28;5012501;28;19943;-72
2023/10/29 06:43:54;;;;;;;;;;;;;;;11.24;100.00;99134.81;5017600;28;20365;-71
2023/10/29 06:46:19;;;;;;;;;;;;;;;11.22;100.00;99147.56;5016704;28;20174;-72
2023/10/29 06:48:44;;;;;;;;;;;;;;;11.26;100.00;99154.25;5012781;28;20030;-70
2023/10/29 06:51:18;;;;;;;;;;;;;;;11.30;100.00;99163.66;5017528;28;20043;-71
2023/10/29 06:53:44;;;;;;;;;;;;;;;11.23;100.00;99155.44;5013523;28;19920;-73
2023/10/29 06:56:10;;;;;;;;;;;;;;;11.25;100.00;99166.84;5016810;28;19959;-71
2023/10/29 06:58:35;;;;;;;;;;;;;;;11.23;100.00;99168.88;5013007;28;19929;-73
2023/10/29 07:01:08;;;;;;;;;;;;;;;11.30;100.00;99174.41;5013129;28;19943;-72
2023/10/29 07:03:33;;;;;;;;;;;;;;;11.20;100.00;99185.31;5017976;28;20566;-73
2023/10/29 07:06:02;;;;;;;;;;;;;;;11.31;100.00;99194.91;4995725;28;20887;-73
2023/10/29 07:08:27;;;;;;;;;;;;;;;11.26;100.00;99173.06;5009794;28;19925;-71
2023/10/29 07:10:55;;;;;;;;;;;;;;;11.32;100.00;99182.31;5004589;28;19921;-72
2023/10/29 07:13:21;;;;;;;;;;;;;;;11.33;100.00;99182.16;5004033;28;19931;-71
2023/10/29 07:15:46;;;;;;;;;;;;;;;11.39;100.00;99183.31;5009447;28;19921;-72
2023/10/29 07:18:11;;;;;;;;;;;;;;;11.53;100.00;99188.06;5008413;28;19929;-72
2023/10/29 07:20:36;;;;;;;;;;;;;;;11.48;100.00;99208.41;5001289;28;19921;-72
2023/10/29 07:23:02;;;;;;;;;;;;;;;11.48;100.00;99209.22;5019420;28;19921;-71
2023/10/29 07:25:27;;;;;;;;;;;;;;;11.49;100.00;99204.69;5021071;28;19921;-73
2023/10/29 07:27:52;;;;;;;;;;;;;;;11.57;100.00;99214.63;5019107;28;19939;-71
2023/10/29 07:30:17;;;;;;;;;;;;;;;11.75;100.00;99217.97;5019362;28;19927;-73
2023/10/29 07:32:42;;;;;;;;;;;;;;;11.78;100.00;99211.44;5018078;28;19959;-71
2023/10/29 07:35:08;;;;;;;;;;;;;;;11.77;100.00;99205.22;5006187;28;20425;-73
2023/10/29 07:37:33;;;;;;;;;;;;;;;11.78;100.00;99216.81;5004141;28;20396;-72
2023/10/29 07:39:58;;;;;;;;;;;;;;;11.84;100.00;99217.00;5004357;28;20631;-72
2023/10/29 07:42:24;;;;;;;;;;;;;;;11.94;100.00;99235.66;5005931;28;19977;-73
2023/10/29 07:44:50;;;;;;;;;;;;;;;11.98;100.00;99230.75;5007033;28;20367;-71
2023/10/29 07:47:15;;;;;;;;;;;;;;;11.97;100.00;99229.06;5003211;28;19931;-73
2023/10/29 07:49:41;;;;;;;;;;;;;;;11.99;100.00;99219.88;5012150;28;20314;-71
2023/10/29 07:52:06;;;;;;;;;;;;;;;11.98;100.00;99239.69;5011885;28;19931;-72
2023/10/29 07:54:31;;;;;;;;;;;;;;;11.88;100.00;99241.69;5010104;28;19961;-70
2023/10/29 07:56:57;;;;;;;;;;;;;;;11.99;100.00;99241.41;5012835;28;19921;-70
2023/10/29 07:59:22;;;;;;;;;;;;;;;12.09;100.00;99245.75;5009057;28;19970;-72
2023/10/29 08:01:47;;;;;;;;;;;;;;;12.17;100.00;99245.75;5013831;28;19970;-73
2023/10/29 08:04:12;;;;;;;;;;;;;;;12.13;100.00;99241.72;5010426;28;19921;-73
2023/10/29 08:06:37;;;;;;;;;;;;;;;12.32;100.00;99235.16;5027315;28;19924;-74
2023/10/29 08:09:03;;;;;;;;;;;;;;;12.45;100.00;99256.97;5010916;28;19940;-73
2023/10/29 08:11:28;;;;;;;;;;;;;;;12.49;100.00;99270.97;5012143;28;19929;-73
2023/10/29 08:13:53;;;;;;;;;;;;;;;12.61;100.00;99252.59;5013771;28;19921;-74
2023/10/29 08:16:18;;;;;;;;;;;;;;;12.63;100.00;99258.66;5011084;28;20687;-71
2023/10/29 08:18:44;;;;;;;;;;;;;;;12.59;100.00;99268.09;5011251;28;20339;-72
2023/10/29 08:21:09;;;;;;;;;;;;;;;12.58;100.00;99286.06;5029072;28;20411;-72
2023/10/29 08:23:34;;;;;;;;;;;;;;;12.63;100.00;99271.25;5010090;28;20504;-71
2023/10/29 08:25:59;;;;;;;;;;;;;;;12.71;100.00;99282.03;5014815;28;19921;-73
2023/10/29 08:28:27;;;;;;;;;;;;;;;12.90;100.00;99284.31;5013005;28;19964;-71
2023/10/29 08:30:52;;;;;;;;;;;;;;;12.99;100.00;99287.00;5010839;28;19929;-74
2023/10/29 08:33:19;;;;;;;;;;;;;;;12.92;100.00;99296.78;5011699;28;19921;-73
2023/10/29 08:35:44;;;;;;;;;;;;;;;12.78;100.00;99296.50;5019816;28;20019;-71
2023/10/29 08:38:10;;;;;;;;;;;;;;;12.79;100.00;99298.16;5008807;28;20280;-72
2023/10/29 08:40:35;;;;;;;;;;;;;;;12.79;100.00;99294.63;5011467;28;20417;-73
2023/10/29 08:43:03;;;;;;;;;;;;;;;12.83;100.00;99294.13;5012834;28;20398;-72
2023/10/29 08:45:28;;;;;;;;;;;;;;;13.02;100.00;99300.13;5009818;28;20363;-71
2023/10/29 08:47:54;;;;;;;;;;;;;;;13.23;100.00;99306.78;5011535;28;19951;-73
2023/10/29 08:50:19;;;;;;;;;;;;;;;13.38;100.00;99299.63;5010942;28;19960;-73
2023/10/29 08:52:44;;;;;;;;;;;;;;;13.44;100.00;99296.28;5026879;28;19925;-72
2023/10/29 08:55:09;;;;;;;;;;;;;;;13.57;100.00;99308.34;5005124;28;19933;-71
2023/10/29 08:57:35;;;;;;;;;;;;;;;13.67;100.00;99314.34;5012869;28;19932;-72
2023/10/29 09:00:00;;;;;;;;;;;;;;;13.66;100.00;99323.44;5012431;28;19952;-73
2023/10/29 09:02:26;;;;;;;;;;;;;;;13.64;100.00;99341.66;5005451;28;22072;-73
2023/10/29 09:04:56;;;;;;;;;;;;;;;13.79;100.00;99329.13;5009381;28;20471;-73
2023/10/29 09:07:22;;;;;;;;;;;;;;;14.01;100.00;99332.03;5010322;28;19963;-72
2023/10/29 09:09:48;;;;;;;;;;;;;;;14.13;100.00;99337.84;5011245;28;19925;-70
2023/10/29 09:12:13;;;;;;;;;;;;;;;14.11;100.00;99342.56;5012056;28;19924;-72
2023/10/29 09:14:38;;;;;;;;;;;;;;;14.14;100.00;99377.31;5010834;28;19960;-73
2023/10/29 09:17:04;;;;;;;;;;;;;;;14.27;100.00;99359.69;5010118;28;19925;-73
2023/10/29 09:19:29;;;;;;;;;;;;;;;14.44;100.00;99372.03;5012233;28;20287;-70
2023/10/29 09:21:54;;;;;;;;;;;;;;;14.59;100.00;99369.38;5009148;28;19925;-71
2023/10/29 09:24:19;;;;;;;;;;;;;;;14.54;100.00;99379.88;5007368;28;20083;-73
2023/10/29 09:26:44;;;;;;;;;;;;;;;14.15;100.00;99373.59;5010068;28;19932;-71
2023/10/29 09:29:10;;;;;;;;;;;;;;;13.84;100.00;99381.72;5022678;28;19921;-71
2023/10/29 09:31:35;;;;;;;;;;;;;;;13.60;100.00;99384.34;5009841;28;20009;-72
2023/10/29 09:34:01;;;;;;;;;;;;;;;13.57;100.00;99390.06;5009003;28;19917;-72
2023/10/29 09:36:26;;;;;;;;;;;;;;;13.89;100.00;99377.47;5011028;28;20044;-71
2023/10/29 09:38:51;;;;;;;;;;;;;;;14.01;100.00;99386.00;5009283;28;19932;-73
2023/10/29 09:41:19;;;;;;;;;;;;;;;14.36;100.00;99372.09;5009601;28;20419;-71
2023/10/29 09:43:46;;;;;;;;;;;;;;;14.63;100.00;99378.81;5010896;28;19966;-71
2023/10/29 09:46:11;;;;;;;;;;;;;;;14.82;100.00;99361.28;5008321;28;19968;-74
2023/10/29 09:48:37;;;;;;;;;;;;;;;14.79;100.00;99382.41;5006511;28;20031;-73
2023/10/29 09:51:03;;;;;;;;;;;;;;;15.10;100.00;99376.84;5010788;28;19928;-72
2023/10/29 09:53:29;;;;;;;;;;;;;;;14.59;100.00;99393.69;5006365;28;20020;-71
2023/10/29 09:55:54;;;;;;;;;;;;;;;14.52;100.00;99398.97;5011358;28;19920;-72
2023/10/29 09:58:22;;;;;;;;;;;;;;;14.56;100.00;99372.44;5011098;28;19948;-72
2023/10/29 10:00:48;;;;;;;;;;;;;;;14.62;100.00;99389.78;5009122;28;20127;-72
2023/10/29 10:03:13;;;;;;;;;;;;;;;14.53;100.00;99380.91;5006214;28;19924;-72
2023/10/29 10:05:38;;;;;;;;;;;;;;;14.50;100.00;99379.41;4995281;28;20442;-72
2023/10/29 10:08:04;;;;;;;;;;;;;;;14.39;100.00;99385.22;5008954;28;20555;-74
2023/10/29 10:10:39;;;;;;;;;;;;;;;14.37;100.00;99382.72;5015165;28;20355;-73
2023/10/29 10:13:04;;;;;;;;;;;;;;;14.17;100.00;99365.34;5020248;28;19925;-72
2023/10/29 10:15:29;;;;;;;;;;;;;;;13.95;100.00;99365.97;5018576;28;19942;-73
2023/10/29 10:17:58;;;;;;;;;;;;;;;13.76;100.00;99350.22;5014734;28;19936;-74
2023/10/29 10:20:23;;;;;;;;;;;;;;;13.80;100.00;99351.53;5014411;28;19960;-72
2023/10/29 10:22:55;;;;;;;;;;;;;;;13.67;100.00;99362.88;5009735;28;20013;-72
2023/10/29 10:25:23;;;;;;;;;;;;;;;13.64;100.00;99358.69;5014215;28;19925;-72
2023/10/29 10:27:49;;;;;;;;;;;;;;;13.59;100.00;99358.38;5014088;28;20394;-70
2023/10/29 10:30:25;;;;;;;;;;;;;;;13.57;100.00;99346.09;5012339;28;19921;-71
2023/10/29 10:32:51;;;;;;;;;;;;;;;13.52;100.00;99357.41;5028246;28;19925;-70
2023/10/29 10:35:16;;;;;;;;;;;;;;;13.47;100.00;99360.63;5013065;28;19967;-71
2023/10/29 10:37:52;;;;;;;;;;;;;;;13.60;100.00;99348.44;5023725;28;20351;-71
2023/10/29 10:40:22;;;;;;;;;;;;;;;13.60;100.00;99343.06;5015712;28;19929;-70
2023/10/29 10:42:52;;;;;;;;;;;;;;;13.69;100.00;99352.78;5029346;28;19921;-71
2023/10/29 10:45:20;;;;;;;;;;;;;;;13.64;100.00;99358.69;5012672;28;19928;-71
2023/10/29 10:47:45;;;;;;;;;;;;;;;13.80;100.00;99351.53;5015960;28;19983;-71
2023/10/29 10:50:10;;;;;;;;;;;;;;;13.93;100.00;99365.28;5015992;28;19925;-71
2023/10/29 10:52:35;;;;;;;;;;;;;;;14.01;100.00;99366.28;5027836;28;19964;-70
2023/10/29 10:55:01;;;;;;;;;;;;;;;14.05;100.00;99372.97;5014268;28;20292;-70
2023/10/29 10:57:26;;;;;;;;;;;;;;;14.17;100.00;99373.44;5016040;28;20067;-69
2023/10/29 10:59:52;;;;;;;;;;;;;;;13.87;100.00;99382.19;5012847;28;19962;-71
2023/10/29 11:02:18;;;;;;;;;;;;;;;13.85;100.00;99381.53;5015376;28;19917;-69
2023/10/29 11:04:43;;;;;;;;;;;;;;;13.79;100.00;99383.06;5015367;28;19921;-69
2023/10/29 11:07:08;;;;;;;;;;;;;;;13.67;100.00;99380.94;5013908;28;19975;-70
2023/10/29 11:09:33;;;;;;;;;;;;;;;13.63;100.00;99381.28;5013775;28;20450;-70
2023/10/29 11:11:59;;;;;;;;;;;;;;;13.53;100.00;99387.91;5016149;28;20401;-71
2023/10/29 11:14:24;;;;;;;;;;;;;;;13.45;100.00;99378.81;5012075;28;19921;-70
2023/10/29 11:16:49;;;;;;;;;;;;;;;13.40;100.00;99383.03;5010659;28;19929;-69
2023/10/29 11:19:33;;;;;;;;;;;;;;;13.39;100.00;99395.66;5014819;28;19924;-71
2023/10/29 11:22:11;;;;;;;;;;;;;;;13.29;100.00;99378.88;5022242;28;19934;-69
2023/10/29 11:24:36;;;;;;;;;;;;;;;13.03;100.00;99353.81;5011016;28;19925;-70
2023/10/29 11:27:20;;;;;;;;;;;;;;;13.26;100.00;99377.34;5016642;28;20006;-70
2023/10/29 11:29:45;;;;;;;;;;;;;;;13.15;100.00;99373.16;5014106;28;19917;-71
2023/10/29 11:32:23;;;;;;;;;;;;;;;13.21;100.00;99363.56;5014449;28;19957;-70
2023/10/29 11:34:48;;;;;;;;;;;;;;;13.22;100.00;99354.47;5011571;28;20646;-71
2023/10/29 11:37:32;;;;;;;;;;;;;;;13.14;100.00;99371.47;5012842;28;19925;-73
2023/10/29 11:39:57;;;;;;;;;;;;;;;13.13;100.00;99353.63;5012854;28;20021;-74
2023/10/29 11:42:23;;;;;;;;;;;;;;;13.11;100.00;99347.56;5029073;28;19925;-69
2023/10/29 11:44:48;;;;;;;;;;;;;;;13.15;100.00;99332.75;5011978;28;19927;-72
2023/10/29 11:47:13;;;;;;;;;;;;;;;13.17;100.00;99335.28;5008172;28;19921;-70
2023/10/29 11:49:41;;;;;;;;;;;;;;;13.14;100.00;99320.28;4991970;28;20126;-74
2023/10/29 11:52:07;;;;;;;;;;;;;;;13.23;100.00;99328.34;5012208;28;20461;-73
2023/10/29 11:54:32;;;;;;;;;;;;;;;13.31;100.00;99317.53;5008811;28;20390;-72
2023/10/29 11:56:57;;;;;;;;;;;;;;;13.43;100.00;99302.69;5011626;28;21054;-72
2023/10/29 11:59:23;;;;;;;;;;;;;;;13.69;100.00;99298.81;5009040;28;19975;-69
2023/10/29 12:01:48;;;;;;;;;;;;;;;14.20;100.00;99292.06;5025354;28;19929;-71
2023/10/29 12:04:13;;;;;;;;;;;;;;;14.13;100.00;99291.13;5013766;28;19921;-72
2023/10/29 12:06:39;;;;;;;;;;;;;;;14.00;100.00;99286.34;5008286;28;20435;-72
2023/10/29 12:09:21;;;;;;;;;;;;;;;13.73;100.00;99299.34;5007938;28;20662;-72
2023/10/29 12:11:48;;;;;;;;;;;;;;;13.46;100.00;99306.91;5009064;28;20052;-72
2023/10/29 12:14:14;;;;;;;;;;;;;;;13.47;100.00;99289.69;5012089;28;19920;-73
2023/10/29 12:16:39;;;;;;;;;;;;;;;14.18;100.00;99275.22;5007218;28;20280;-72
2023/10/29 12:19:04;;;;;;;;;;;;;;;13.77;100.00;99271.00;4994872;28;19959;-72
2023/10/29 12:21:29;;;;;;;;;;;;;;;13.72;100.00;99285.00;5025257;28;19952;-71
2023/10/29 12:23:57;;;;;;;;;;;;;;;13.59;100.00;99301.75;5009703;28;19949;-72
2023/10/29 12:26:22;;;;;;;;;;;;;;;13.53;100.00;99307.03;5004102;28;20350;-72
2023/10/29 12:28:49;;;;;;;;;;;;;;;13.37;100.00;99297.97;5003710;28;20031;-71